createdAt,value
2022-11-22T00:00:20.459Z,91443.06
2022-11-22T00:02:53.554Z,91440.75
2022-11-22T00:05:25.934Z,91439.41
2022-11-22T00:07:58.303Z,91446.44
2022-11-22T00:10:30.865Z,91439.81
2022-11-22T00:13:04.028Z,91444.41
2022-11-22T00:15:36.406Z,91440.31
2022-11-22T00:18:09.583Z,91441.09
2022-11-22T00:20:41.911Z,91436.91
2022-11-22T00:23:14.265Z,91436.88
2022-11-22T00:25:46.815Z,91430.69
2022-11-22T00:28:19.209Z,91431.97
2022-11-22T00:30:51.602Z,91426.03
2022-11-22T00:33:24.771Z,91433.78
2022-11-22T00:35:57.184Z,91426.56
2022-11-22T00:38:29.501Z,91431.44
2022-11-22T00:41:01.864Z,91426.78
2022-11-22T00:43:34.279Z,91433.56
2022-11-22T00:46:06.872Z,91431.97
2022-11-22T00:48:39.924Z,91436.63
2022-11-22T00:51:12.235Z,91443.31
2022-11-22T00:53:44.564Z,91432.50
2022-11-22T00:56:16.929Z,91432.75
2022-11-22T00:58:49.269Z,91435.84
2022-11-22T01:01:21.692Z,91447.00
2022-11-22T01:03:54.754Z,91441.84
2022-11-22T01:06:27.170Z,91440.56
2022-11-22T01:08:59.614Z,91439.56
2022-11-22T01:11:32.256Z,91433.38
2022-11-22T01:14:04.580Z,91427.19
2022-11-22T01:16:37.027Z,91428.94
2022-11-22T01:19:10.501Z,91431.28
2022-11-22T01:21:42.891Z,91441.09
2022-11-22T01:24:15.288Z,91430.56
2022-11-22T01:26:47.794Z,91432.59
2022-11-22T01:29:20.206Z,91436.78
2022-11-22T01:31:52.593Z,91426.75
2022-11-22T01:34:25.803Z,91429.88
2022-11-22T01:36:58.248Z,91419.03
2022-11-22T01:39:30.843Z,91429.63
2022-11-22T01:42:03.443Z,91412.09
2022-11-22T01:44:35.878Z,91419.31
2022-11-22T01:47:12.577Z,91413.63
2022-11-22T01:49:51.785Z,91424.47
2022-11-22T01:52:26.386Z,91413.41
2022-11-22T01:55:03.281Z,91416.53
2022-11-22T01:57:38.894Z,91425.56
2022-11-22T02:00:13.874Z,91417.63
2022-11-22T02:02:52.687Z,91428.69
2022-11-22T02:05:29.735Z,91428.19
2022-11-22T02:08:08.092Z,91423.28
2022-11-22T02:10:46.589Z,91423.06
2022-11-22T02:13:21.584Z,91425.13
2022-11-22T02:15:54.590Z,91419.72
2022-11-22T02:18:27.218Z,91426.13
2022-11-22T02:21:07.513Z,91418.66
2022-11-22T02:23:54.578Z,91410.69
2022-11-22T02:26:29.791Z,91416.63
2022-11-22T02:29:05.116Z,91419.19
2022-11-22T02:31:41.053Z,91417.63
2022-11-22T02:34:14.267Z,91412.22
2022-11-22T02:36:53.385Z,91412.47
2022-11-22T02:39:30.877Z,91411.19
2022-11-22T02:42:04.340Z,91405.28
2022-11-22T02:44:38.027Z,91404.53
2022-11-22T02:47:10.423Z,91407.06
2022-11-22T02:49:42.788Z,91407.59
2022-11-22T02:52:16.390Z,91399.34
2022-11-22T02:54:48.859Z,91405.53
2022-11-22T02:57:21.906Z,91407.06
2022-11-22T02:59:54.241Z,91403.75
2022-11-22T03:02:26.632Z,91393.97
2022-11-22T03:04:58.947Z,91397.81
2022-11-22T03:07:31.363Z,91398.84
2022-11-22T03:10:04.275Z,91381.88
2022-11-22T03:12:37.456Z,91405.56
2022-11-22T03:15:10.655Z,91398.88
2022-11-22T03:17:43.180Z,91391.16
2022-11-22T03:20:15.741Z,91398.09
2022-11-22T03:22:48.160Z,91393.22
2022-11-22T03:25:20.862Z,91385.22
2022-11-22T03:27:54.589Z,91399.41
2022-11-22T03:30:26.927Z,91394.75
2022-11-22T03:32:59.322Z,91398.84
2022-11-22T03:35:31.749Z,91396.28
2022-11-22T03:38:04.715Z,91398.09
2022-11-22T03:40:37.126Z,91395.78
2022-11-22T03:43:10.105Z,91392.69
2022-11-22T03:45:45.082Z,91393.47
2022-11-22T03:48:17.934Z,91384.97
2022-11-22T03:50:50.383Z,91389.59
2022-11-22T03:53:22.847Z,91392.44
2022-11-22T03:55:55.241Z,91409.41
2022-11-22T03:58:28.316Z,91414.00
2022-11-22T04:01:03.849Z,91405.78
2022-11-22T04:03:36.334Z,91401.94
2022-11-22T04:06:08.657Z,91398.84
2022-11-22T04:08:41.111Z,91411.94
2022-11-22T04:11:13.524Z,91406.28
2022-11-22T04:14:04.630Z,91412.44
2022-11-22T04:16:37.005Z,91414.78
2022-11-22T04:19:09.425Z,91411.19
2022-11-22T04:21:41.506Z,91419.66
2022-11-22T04:24:31.902Z,91416.59
2022-11-22T04:27:04.307Z,91415.03
2022-11-22T04:29:37.325Z,91423.00
2022-11-22T04:32:27.547Z,91421.47
2022-11-22T04:34:59.938Z,91416.53
2022-11-22T04:37:32.335Z,91414.47
2022-11-22T04:40:05.810Z,91415.25
2022-11-22T04:42:56.622Z,91423.19
2022-11-22T04:45:29.690Z,91423.19
2022-11-22T04:48:02.229Z,91433.47
2022-11-22T04:50:52.620Z,91429.09
2022-11-22T04:53:25.421Z,91431.41
2022-11-22T04:55:57.844Z,91436.84
2022-11-22T04:58:30.187Z,91449.69
2022-11-22T05:01:03.566Z,91445.00
2022-11-22T05:03:35.972Z,91465.06
2022-11-22T05:06:12.982Z,91459.41
2022-11-22T05:08:45.367Z,91459.44
2022-11-22T05:11:18.005Z,91450.72
2022-11-22T05:13:50.356Z,91461.72
2022-11-22T05:16:23.464Z,91462.72
2022-11-22T05:18:58.727Z,91464.56
2022-11-22T05:21:32.543Z,91453.75
2022-11-22T05:24:05.397Z,91459.66
2022-11-22T05:26:37.768Z,91458.41
2022-11-22T05:29:10.799Z,91444.22
2022-11-22T05:31:49.855Z,91458.94
2022-11-22T05:34:23.594Z,91447.88
2022-11-22T05:36:55.966Z,91450.72
2022-11-22T05:39:28.573Z,91448.66
2022-11-22T05:42:01.232Z,91450.22
2022-11-22T05:44:33.851Z,91457.44
2022-11-22T05:47:07.210Z,91461.53
2022-11-22T05:49:40.091Z,91462.03
2022-11-22T05:52:12.651Z,91453.28
2022-11-22T05:54:45.039Z,91457.16
2022-11-22T05:57:17.444Z,91460.00
2022-11-22T05:59:49.757Z,91461.53
2022-11-22T06:02:22.858Z,91451.75
2022-11-22T06:04:55.224Z,91465.63
2022-11-22T06:07:27.647Z,91460.72
2022-11-22T06:10:00.219Z,91456.66
2022-11-22T06:12:32.564Z,91448.69
2022-11-22T06:15:05.614Z,91451.28
2022-11-22T06:17:38.655Z,91453.06
2022-11-22T06:20:11.801Z,91453.09
2022-11-22T06:22:44.401Z,91452.03
2022-11-22T06:25:16.874Z,91459.00
2022-11-22T06:27:49.208Z,91454.66
2022-11-22T06:30:21.667Z,91448.22
2022-11-22T06:32:54.722Z,91464.16
2022-11-22T06:35:27.084Z,91455.44
2022-11-22T06:38:00.972Z,91459.78
2022-11-22T06:40:33.662Z,91469.28
2022-11-22T06:43:06.138Z,91477.75
2022-11-22T06:45:38.541Z,91477.78
2022-11-22T06:48:11.643Z,91475.97
2022-11-22T06:50:44.039Z,91473.41
2022-11-22T06:53:32.683Z,91473.19
2022-11-22T06:56:11.151Z,91463.41
2022-11-22T06:58:44.419Z,91465.72
2022-11-22T07:01:18.623Z,91463.41
2022-11-22T07:03:55.386Z,91473.47
2022-11-22T07:06:29.324Z,91469.34
2022-11-22T07:09:04.350Z,91455.47
2022-11-22T07:11:37.642Z,91455.19
2022-11-22T07:14:10.005Z,91452.63
2022-11-22T07:16:42.480Z,91451.59
2022-11-22T07:19:15.804Z,91445.44
2022-11-22T07:21:48.928Z,91450.84
2022-11-22T07:24:21.348Z,91446.97
2022-11-22T07:26:53.757Z,91456.50
2022-11-22T07:29:26.086Z,91436.94
2022-11-22T07:31:58.421Z,91436.66
2022-11-22T07:34:31.471Z,91436.91
2022-11-22T07:37:08.828Z,91426.63
2022-11-22T07:39:41.605Z,91410.13
2022-11-22T07:42:14.007Z,91398.56
2022-11-22T07:44:46.532Z,91413.19
2022-11-22T07:47:22.874Z,91444.63
2022-11-22T07:49:56.318Z,91438.69
2022-11-22T07:52:28.819Z,91440.75
2022-11-22T07:55:01.287Z,91444.88
2022-11-22T07:57:34.230Z,91443.28
2022-11-22T08:00:07.888Z,91450.41
2022-11-22T08:02:40.204Z,91434.31
2022-11-22T08:05:13.443Z,91441.94
2022-11-22T08:07:47.383Z,91436.88
2022-11-22T08:10:20.953Z,91432.88
2022-11-22T08:12:53.293Z,91439.16
2022-11-22T08:15:25.694Z,91439.28
2022-11-22T08:17:58.447Z,91422.94
2022-11-22T08:20:31.427Z,91401.66
2022-11-22T08:23:03.799Z,91422.06
2022-11-22T08:25:36.125Z,91421.34
2022-11-22T08:28:08.517Z,91419.63
2022-11-22T08:30:40.870Z,91416.00
2022-11-22T08:33:13.219Z,91408.34
2022-11-22T08:35:50.386Z,91403.53
2022-11-22T08:38:22.871Z,91390.69
2022-11-22T08:40:55.454Z,91388.69
2022-11-22T08:43:27.768Z,91384.16
2022-11-22T08:46:01.251Z,91401.84
2022-11-22T08:48:35.882Z,91396.56
2022-11-22T08:51:15.622Z,91398.38
2022-11-22T08:53:47.782Z,91393.91
2022-11-22T08:56:20.151Z,91394.59
2022-11-22T08:58:53.425Z,91398.69
2022-11-22T09:01:25.909Z,91393.38
2022-11-22T09:03:58.350Z,91391.16
2022-11-22T09:09:37.440Z,91395.72
2022-11-22T09:12:10.456Z,91385.81
2022-11-22T09:14:42.894Z,91389.66
2022-11-22T09:17:18.134Z,91392.13
2022-11-22T09:19:50.749Z,91393.19
2022-11-22T09:22:28.257Z,91394.50
2022-11-22T09:36:00.615Z,91391.00
2022-11-22T09:38:33.998Z,91373.44
2022-11-22T09:41:34.284Z,91366.09
2022-11-22T09:44:13.708Z,91351.28
2022-11-22T09:46:52.412Z,91355.47
2022-11-22T09:49:29.872Z,91356.06
2022-11-22T09:52:09.759Z,91356.44
2022-11-22T09:54:44.905Z,91357.69
2022-11-22T09:57:21.421Z,91350.78
2022-11-22T10:00:01.906Z,91341.69
2022-11-22T10:03:02.540Z,91343.53
2022-11-22T10:32:45.986Z,91275.44
2022-11-22T10:35:28.112Z,91271.59
2022-11-22T10:38:23.362Z,91285.47
2022-11-22T10:41:07.125Z,91288.47
2022-11-22T10:43:45.412Z,91280.28
2022-11-22T10:46:24.870Z,91282.88
2022-11-22T10:49:06.933Z,91277.06
2022-11-22T10:51:50.804Z,91276.53
2022-11-22T10:54:31.502Z,91275.72
2022-11-22T10:57:15.619Z,91271.59
2022-11-22T11:00:02.619Z,91265.44
2022-11-22T11:02:59.826Z,91267.56
2022-11-22T11:05:42.076Z,91273.50
2022-11-22T11:08:50.003Z,91260.75
2022-11-22T11:11:24.685Z,91263.03
2022-11-22T11:14:02.173Z,91279.69
2022-11-22T11:16:37.615Z,91264.56
2022-11-22T11:19:17.152Z,91259.97
2022-11-22T11:21:57.358Z,91272.72
2022-11-22T11:24:31.330Z,91259.66
2022-11-22T11:27:04.288Z,91274.38
2022-11-22T11:29:41.539Z,91274.88
2022-11-22T11:32:15.680Z,91261.59
2022-11-22T11:34:55.805Z,91252.22
2022-11-22T11:37:34.845Z,91250.13
2022-11-22T11:40:27.611Z,91247.63
2022-11-22T11:43:18.900Z,91250.28
2022-11-22T11:45:51.753Z,91246.47
2022-11-22T11:48:29.250Z,91244.06
2022-11-22T11:53:28.315Z,91229.31
2022-11-22T11:56:19.420Z,91228.88
2022-11-22T11:58:54.462Z,91232.56
2022-11-22T12:01:27.016Z,91218.34
2022-11-22T12:04:03.559Z,91221.69
2022-11-22T12:06:35.908Z,91235.59
2022-11-22T12:09:28.554Z,91237.56
2022-11-22T12:12:14.946Z,91236.34
2022-11-22T12:15:10.762Z,91227.81
2022-11-22T12:17:52.539Z,91223.03
2022-11-22T12:20:30.945Z,91220.22
2022-11-22T12:23:17.297Z,91224.00
2022-11-22T12:25:54.570Z,91214.06
2022-11-22T12:28:28.550Z,91211.53
2022-11-22T12:31:08.290Z,91208.84
2022-11-22T12:33:47.281Z,91197.75
2022-11-22T12:36:31.180Z,91196.00
2022-11-22T12:39:08.438Z,91201.66
2022-11-22T12:41:43.724Z,91185.34
2022-11-22T12:44:18.875Z,91190.75
2022-11-22T12:46:57.186Z,91190.09
2022-11-22T12:49:34.620Z,91190.56
2022-11-22T12:52:16.154Z,91201.66
2022-11-22T12:54:59.633Z,91196.66
2022-11-22T12:57:38.969Z,91213.63
2022-11-22T13:00:16.241Z,91201.16
2022-11-22T13:03:00.010Z,91205.38
2022-11-22T13:05:40.333Z,91204.81
2022-11-22T13:08:18.289Z,91175.00
2022-11-22T13:10:54.836Z,91163.09
2022-11-22T13:13:32.967Z,91164.84
2022-11-22T13:16:09.273Z,91168.56
2022-11-22T13:18:46.202Z,91154.75
2022-11-22T13:21:29.418Z,91168.44
2022-11-22T13:24:18.883Z,91178.81
2022-11-22T13:27:02.505Z,91173.75
2022-11-22T13:29:39.436Z,91160.59
2022-11-22T13:32:19.536Z,91152.63
2022-11-22T13:35:05.819Z,91145.53
2022-11-22T13:37:41.253Z,91154.38
2022-11-22T13:40:24.849Z,91156.69
2022-11-22T13:43:33.126Z,91160.72
2022-11-22T13:47:00.112Z,91148.91
2022-11-22T13:49:38.197Z,91144.59
2022-11-22T13:52:50.368Z,91130.59
2022-11-22T13:55:40.211Z,91135.41
2022-11-22T13:58:51.679Z,91137.50
2022-11-22T14:01:59.777Z,91133.88
2022-11-22T14:04:43.819Z,91110.47
2022-11-22T14:07:36.697Z,91126.56
2022-11-22T14:10:28.232Z,91136.72
2022-11-22T14:13:22.853Z,91123.69
2022-11-22T14:16:21.413Z,91114.22
2022-11-22T14:19:02.956Z,91102.03
2022-11-22T14:22:03.877Z,91115.84
2022-11-22T14:24:57.126Z,91123.69
2022-11-22T14:27:41.573Z,91113.53
2022-11-22T14:30:17.902Z,91110.38
2022-11-22T14:33:00.259Z,91117.19
2022-11-22T14:35:37.351Z,91112.28
2022-11-22T14:38:30.247Z,91105.50
2022-11-22T14:41:41.587Z,91086.72
2022-11-22T14:44:17.876Z,91104.06
2022-11-22T14:46:56.175Z,91084.41
2022-11-22T14:49:38.000Z,91085.94
2022-11-22T14:52:19.653Z,91082.84
2022-11-22T14:54:56.186Z,91089.59
2022-11-22T14:57:31.603Z,91095.59
2022-11-22T15:00:17.559Z,91092.00
2022-11-22T15:03:21.917Z,91099.25
2022-11-22T15:09:20.995Z,91099.44
2022-11-22T15:09:53.833Z,91107.44
2022-11-22T15:12:47.959Z,91104.94
2022-11-22T15:57:33.057Z,91102.06
2022-11-22T16:00:10.057Z,91101.84
2022-11-22T16:02:49.579Z,91097.34
2022-11-22T16:06:06.890Z,91100.31
2022-11-22T16:08:26.565Z,91097.53
2022-11-22T16:11:04.573Z,91089.97
2022-11-22T16:13:37.768Z,91076.16
2022-11-22T16:16:25.423Z,91070.53
2022-11-22T16:19:20.744Z,91072.72
2022-11-22T16:21:56.825Z,91074.63
2022-11-22T16:24:30.405Z,91081.03
2022-11-22T16:27:11.528Z,91059.22
2022-11-22T16:29:50.865Z,91075.84
2022-11-22T16:32:23.417Z,91054.69
2022-11-22T16:35:21.783Z,91047.50
2022-11-22T16:37:49.063Z,91044.53
2022-11-22T16:40:21.525Z,91029.88
2022-11-22T16:42:53.951Z,91017.69
2022-11-22T16:45:26.252Z,91038.28
2022-11-22T16:48:24.460Z,91030.34
2022-11-22T16:50:57.322Z,91024.63
2022-11-22T16:53:37.879Z,91038.38
2022-11-22T16:56:17.592Z,91041.34
2022-11-22T16:58:50.347Z,91024.97
2022-11-22T17:01:25.614Z,91017.69
2022-11-22T17:03:59.173Z,90994.38
2022-11-22T17:06:32.475Z,90986.63
2022-11-22T17:09:04.955Z,90984.50
2022-11-22T17:11:37.294Z,90993.50
2022-11-22T17:14:13.038Z,91002.38
2022-11-22T17:16:46.240Z,90999.41
2022-11-22T17:19:45.591Z,91004.75
2022-11-22T17:22:13.218Z,91023.84
2022-11-22T17:24:45.603Z,91020.66
2022-11-22T17:27:17.982Z,91006.19
2022-11-22T17:29:51.151Z,90989.81
2022-11-22T17:32:23.874Z,90975.59
2022-11-22T17:34:56.258Z,90974.69
2022-11-22T17:37:29.293Z,90983.34
2022-11-22T17:40:01.781Z,90998.94
2022-11-22T17:42:38.151Z,90963.34
2022-11-22T17:45:13.578Z,90957.25
2022-11-22T17:47:45.953Z,90955.19
2022-11-22T17:50:18.414Z,90954.16
2022-11-22T17:52:52.442Z,90971.09
2022-11-22T17:55:32.740Z,90939.69
2022-11-22T17:58:14.897Z,90941.94
2022-11-22T18:00:47.213Z,90949.22
2022-11-22T18:03:19.575Z,90936.16
2022-11-22T18:05:51.974Z,90930.19
2022-11-22T18:08:25.105Z,90933.69
2022-11-22T18:10:59.317Z,90930.28
2022-11-22T18:13:35.305Z,90931.63
2022-11-22T18:16:11.392Z,90928.03
2022-11-22T18:19:00.045Z,90906.78
2022-11-22T18:21:33.267Z,90912.84
2022-11-22T18:24:07.796Z,90907.44
2022-11-22T18:26:41.286Z,90904.56
2022-11-22T18:32:07.234Z,90918.75
2022-11-22T18:34:40.765Z,90915.03
2022-11-22T18:37:13.229Z,90917.81
2022-11-22T18:39:46.251Z,90925.78
2022-11-22T18:42:18.642Z,90918.81
2022-11-22T18:44:51.043Z,90911.22
2022-11-22T18:47:23.839Z,90891.91
2022-11-22T18:49:56.342Z,90893.59
2022-11-22T18:52:33.540Z,90891.38
2022-11-22T18:55:07.818Z,90883.97
2022-11-22T18:57:40.143Z,90892.31
2022-11-22T19:00:13.759Z,90908.72
2022-11-22T19:02:46.142Z,90913.78
2022-11-22T19:05:23.287Z,90914.06
2022-11-22T19:07:56.755Z,90931.56
2022-11-22T19:10:29.770Z,90940.63
2022-11-22T19:13:02.171Z,90928.16
2022-11-22T19:15:34.795Z,90924.97
2022-11-22T19:18:08.949Z,90907.34
2022-11-22T19:20:54.667Z,90909.69
2022-11-22T19:23:27.915Z,90899.50
2022-11-22T19:26:06.248Z,90923.56
2022-11-22T19:28:38.600Z,90939.09
2022-11-22T19:31:13.097Z,90952.34
2022-11-22T19:33:45.825Z,90958.44
2022-11-22T19:36:20.059Z,90954.16
2022-11-22T19:38:52.500Z,90942.63
2022-11-22T19:41:25.595Z,90925.78
2022-11-22T19:43:58.229Z,90917.66
2022-11-22T19:46:30.599Z,90897.47
2022-11-22T19:49:03.103Z,90896.06
2022-11-22T19:51:36.300Z,90900.56
2022-11-22T19:54:08.720Z,90917.50
2022-11-22T19:56:41.719Z,90930.78
2022-11-22T19:59:16.402Z,90916.16
2022-11-22T20:01:48.737Z,90914.88
2022-11-22T20:04:21.140Z,90909.44
2022-11-22T20:06:53.499Z,90899.50
2022-11-22T20:09:25.927Z,90869.28
2022-11-22T20:11:59.037Z,90850.00
2022-11-22T20:14:32.669Z,90863.03
2022-11-22T20:17:05.112Z,90876.16
2022-11-22T20:19:37.513Z,90889.56
2022-11-22T20:22:10.039Z,90884.09
2022-11-22T20:24:42.430Z,90870.97
2022-11-22T20:27:19.214Z,90859.56
2022-11-22T20:29:55.671Z,90866.94
2022-11-22T20:32:28.165Z,90869.19
2022-11-22T20:35:00.498Z,90863.75
2022-11-22T20:37:34.732Z,90852.75
2022-11-22T20:40:07.986Z,90860.88
2022-11-22T20:42:41.009Z,90865.91
2022-11-22T20:45:13.374Z,90835.94
2022-11-22T20:47:45.712Z,90836.50
2022-11-22T20:50:19.258Z,90849.63
2022-11-22T20:52:51.907Z,90850.84
2022-11-22T20:55:24.276Z,90840.94
2022-11-22T20:57:57.287Z,90810.13
2022-11-22T21:00:29.612Z,90808.06
2022-11-22T21:03:01.970Z,90842.56
2022-11-22T21:05:34.645Z,90850.84
2022-11-22T21:08:07.047Z,90846.91
2022-11-22T21:10:39.517Z,90847.09
2022-11-22T21:13:12.637Z,90836.47
2022-11-22T21:15:45.026Z,90843.16
2022-11-22T21:18:25.344Z,90842.63
2022-11-22T21:21:02.933Z,90847.28
2022-11-22T21:23:35.562Z,90857.22
2022-11-22T21:26:08.314Z,90864.69
2022-11-22T21:28:41.399Z,90865.03
2022-11-22T21:31:13.907Z,90888.03
2022-11-22T21:33:46.891Z,90880.09
2022-11-22T21:36:20.314Z,90878.47
2022-11-22T21:38:52.679Z,90876.22
2022-11-22T21:41:39.874Z,90868.03
2022-11-22T21:44:13.741Z,90853.88
2022-11-22T21:46:46.144Z,90852.59
2022-11-22T21:49:18.520Z,90847.09
2022-11-22T21:51:51.054Z,90851.84
2022-11-22T21:54:23.389Z,90846.13
2022-11-22T21:57:01.282Z,90857.88
2022-11-22T21:59:35.728Z,90858.38
2022-11-22T22:02:08.693Z,90857.22
2022-11-22T22:04:41.097Z,90848.22
2022-11-22T22:07:30.101Z,90854.63
2022-11-22T22:10:06.226Z,90830.09
2022-11-22T22:12:38.812Z,90819.56
2022-11-22T22:15:12.211Z,90821.25
2022-11-22T22:17:44.654Z,90813.50
2022-11-22T22:20:17.200Z,90815.22
2022-11-22T22:22:50.052Z,90819.22
2022-11-22T22:25:22.389Z,90803.59
2022-11-22T22:27:56.794Z,90804.22
2022-11-22T22:30:29.866Z,90807.09
2022-11-22T22:33:02.214Z,90815.78
2022-11-22T22:35:34.546Z,90804.09
2022-11-22T22:38:06.876Z,90802.91
2022-11-22T22:40:39.201Z,90803.56
2022-11-22T22:43:11.579Z,90798.50
2022-11-22T22:45:44.643Z,90801.38
2022-11-22T22:48:17.603Z,90805.47
2022-11-22T22:50:49.925Z,90792.28
2022-11-22T22:53:22.469Z,90803.75
2022-11-22T22:55:55.140Z,90795.88
2022-11-22T22:58:27.643Z,90803.19
2022-11-22T23:01:13.072Z,90799.56
2022-11-22T23:03:47.655Z,90797.75
2022-11-22T23:06:21.867Z,90784.69
2022-11-22T23:08:55.125Z,90780.47
2022-11-22T23:11:43.711Z,90783.78
2022-11-22T23:14:18.326Z,90787.50
2022-11-22T23:16:57.027Z,90791.47
2022-11-22T23:19:30.568Z,90786.31
2022-11-22T23:22:03.752Z,90780.91
2022-11-22T23:24:36.108Z,90768.59
2022-11-22T23:27:08.417Z,90781.09
2022-11-22T23:29:40.871Z,90768.63
2022-11-22T23:32:13.907Z,90766.38
2022-11-22T23:34:46.335Z,90759.22
2022-11-22T23:37:18.637Z,90754.66
2022-11-22T23:39:51.134Z,90764.09
2022-11-22T23:42:23.499Z,90763.97
2022-11-22T23:44:56.349Z,90751.47
2022-11-22T23:47:29.370Z,90749.66
2022-11-22T23:50:01.738Z,90756.66
2022-11-22T23:52:34.137Z,90754.75
2022-11-22T23:55:07.198Z,90757.03
2022-11-22T23:57:39.576Z,90779.72
